sensor_id;sensor_type;location;lat;lon;timestamp;P1;durP1;ratioP1;P2;durP2;ratioP2
4244;SDS011;2136;48.502;9.194;2023-03-05T00:01:17;48.13;;;21.80;;
4244;SDS011;2136;48.502;9.194;2023-03-05T00:03:47;51.43;;;22.30;;
4244;SDS011;2136;48.502;9.194;2023-03-05T00:06:15;56.43;;;21.70;;
4244;SDS011;2136;48.502;9.194;2023-03-05T00:08:42;47.73;;;23.60;;
4244;SDS011;2136;48.502;9.194;2023-03-05T00:11:09;59.10;;;23.80;;
4244;SDS011;2136;48.502;9.194;2023-03-05T00:13:37;61.20;;;24.30;;
4244;SDS011;2136;48.502;9.194;2023-03-05T00:16:05;54.60;;;24.30;;
4244;SDS011;2136;48.502;9.194;2023-03-05T00:18:34;60.83;;;25.37;;
4244;SDS011;2136;48.502;9.194;2023-03-05T00:21:01;51.07;;;23.40;;
4244;SDS011;2136;48.502;9.194;2023-03-05T00:23:29;41.93;;;20.03;;
4244;SDS011;2136;48.502;9.194;2023-03-05T00:25:59;47.27;;;20.30;;
4244;SDS011;2136;48.502;9.194;2023-03-05T00:28:26;67.17;;;21.07;;
4244;SDS011;2136;48.502;9.194;2023-03-05T00:30:53;57.80;;;19.70;;
4244;SDS011;2136;48.502;9.194;2023-03-05T00:33:20;39.07;;;17.20;;
4244;SDS011;2136;48.502;9.194;2023-03-05T00:35:46;47.73;;;21.50;;
4244;SDS011;2136;48.502;9.194;2023-03-05T00:38:13;45.50;;;18.40;;
4244;SDS011;2136;48.502;9.194;2023-03-05T00:40:41;46.03;;;20.73;;
4244;SDS011;2136;48.502;9.194;2023-03-05T00:43:08;36.63;;;17.90;;
4244;SDS011;2136;48.502;9.194;2023-03-05T00:45:36;43.47;;;19.70;;
4244;SDS011;2136;48.502;9.194;2023-03-05T00:48:03;57.50;;;21.47;;
4244;SDS011;2136;48.502;9.194;2023-03-05T00:50:30;52.07;;;19.60;;
4244;SDS011;2136;48.502;9.194;2023-03-05T00:52:57;42.07;;;20.10;;
4244;SDS011;2136;48.502;9.194;2023-03-05T00:55:24;44.90;;;20.73;;
4244;SDS011;2136;48.502;9.194;2023-03-05T00:57:52;47.30;;;19.20;;
4244;SDS011;2136;48.502;9.194;2023-03-05T01:00:19;44.37;;;23.57;;
4244;SDS011;2136;48.502;9.194;2023-03-05T01:02:46;43.53;;;21.83;;
4244;SDS011;2136;48.502;9.194;2023-03-05T01:05:13;43.70;;;20.53;;
4244;SDS011;2136;48.502;9.194;2023-03-05T01:07:40;45.33;;;21.00;;
4244;SDS011;2136;48.502;9.194;2023-03-05T01:10:07;48.00;;;20.43;;
4244;SDS011;2136;48.502;9.194;2023-03-05T01:12:36;46.80;;;20.90;;
4244;SDS011;2136;48.502;9.194;2023-03-05T01:15:04;39.90;;;21.70;;
4244;SDS011;2136;48.502;9.194;2023-03-05T01:17:32;40.47;;;20.73;;
4244;SDS011;2136;48.502;9.194;2023-03-05T01:19:59;46.40;;;20.80;;
4244;SDS011;2136;48.502;9.194;2023-03-05T01:22:26;46.03;;;20.90;;
4244;SDS011;2136;48.502;9.194;2023-03-05T01:24:53;43.90;;;21.63;;
4244;SDS011;2136;48.502;9.194;2023-03-05T01:27:20;46.20;;;22.60;;
4244;SDS011;2136;48.502;9.194;2023-03-05T01:29:47;44.73;;;20.50;;
4244;SDS011;2136;48.502;9.194;2023-03-05T01:32:15;47.67;;;22.27;;
4244;SDS011;2136;48.502;9.194;2023-03-05T01:34:42;46.17;;;22.87;;
4244;SDS011;2136;48.502;9.194;2023-03-05T01:37:09;50.13;;;20.93;;
4244;SDS011;2136;48.502;9.194;2023-03-05T01:39:36;61.57;;;20.53;;
4244;SDS011;2136;48.502;9.194;2023-03-05T01:42:03;45.00;;;22.43;;
4244;SDS011;2136;48.502;9.194;2023-03-05T01:44:31;52.77;;;22.57;;
4244;SDS011;2136;48.502;9.194;2023-03-05T01:46:58;44.33;;;21.17;;
4244;SDS011;2136;48.502;9.194;2023-03-05T01:49:27;50.70;;;21.90;;
4244;SDS011;2136;48.502;9.194;2023-03-05T01:52:00;40.73;;;19.73;;
4244;SDS011;2136;48.502;9.194;2023-03-05T01:54:32;46.30;;;20.80;;
4244;SDS011;2136;48.502;9.194;2023-03-05T01:57:04;45.80;;;21.83;;
4244;SDS011;2136;48.502;9.194;2023-03-05T01:59:34;51.60;;;21.13;;
4244;SDS011;2136;48.502;9.194;2023-03-05T02:02:02;47.03;;;20.53;;
4244;SDS011;2136;48.502;9.194;2023-03-05T02:04:35;37.00;;;18.20;;
4244;SDS011;2136;48.502;9.194;2023-03-05T02:07:07;44.20;;;21.87;;
4244;SDS011;2136;48.502;9.194;2023-03-05T02:09:36;41.80;;;18.87;;
4244;SDS011;2136;48.502;9.194;2023-03-05T02:12:04;53.30;;;21.97;;
4244;SDS011;2136;48.502;9.194;2023-03-05T02:14:31;44.80;;;21.63;;
4244;SDS011;2136;48.502;9.194;2023-03-05T02:16:58;46.50;;;19.57;;
4244;SDS011;2136;48.502;9.194;2023-03-05T02:19:25;41.83;;;18.90;;
4244;SDS011;2136;48.502;9.194;2023-03-05T02:21:53;42.70;;;19.67;;
4244;SDS011;2136;48.502;9.194;2023-03-05T02:24:31;40.30;;;19.97;;
4244;SDS011;2136;48.502;9.194;2023-03-05T02:27:00;47.90;;;18.73;;
4244;SDS011;2136;48.502;9.194;2023-03-05T02:29:29;51.77;;;21.27;;
4244;SDS011;2136;48.502;9.194;2023-03-05T02:31:57;37.13;;;17.80;;
4244;SDS011;2136;48.502;9.194;2023-03-05T02:34:25;50.33;;;19.70;;
4244;SDS011;2136;48.502;9.194;2023-03-05T02:36:53;50.53;;;20.37;;
4244;SDS011;2136;48.502;9.194;2023-03-05T02:39:20;53.40;;;22.60;;
4244;SDS011;2136;48.502;9.194;2023-03-05T02:41:47;43.60;;;21.20;;
4244;SDS011;2136;48.502;9.194;2023-03-05T02:44:14;49.80;;;20.90;;
4244;SDS011;2136;48.502;9.194;2023-03-05T02:46:41;45.33;;;21.80;;
4244;SDS011;2136;48.502;9.194;2023-03-05T02:49:08;43.00;;;20.83;;
4244;SDS011;2136;48.502;9.194;2023-03-05T02:51:34;52.33;;;21.53;;
4244;SDS011;2136;48.502;9.194;2023-03-05T02:54:03;47.00;;;22.03;;
4244;SDS011;2136;48.502;9.194;2023-03-05T02:56:30;51.20;;;22.20;;
4244;SDS011;2136;48.502;9.194;2023-03-05T02:58:57;42.67;;;20.77;;
4244;SDS011;2136;48.502;9.194;2023-03-05T03:01:23;61.47;;;22.13;;
4244;SDS011;2136;48.502;9.194;2023-03-05T03:03:52;47.87;;;22.17;;
4244;SDS011;2136;48.502;9.194;2023-03-05T03:06:19;53.70;;;21.57;;
4244;SDS011;2136;48.502;9.194;2023-03-05T03:08:45;47.77;;;22.00;;
4244;SDS011;2136;48.502;9.194;2023-03-05T03:11:14;59.67;;;22.30;;
4244;SDS011;2136;48.502;9.194;2023-03-05T03:13:41;57.10;;;21.23;;
4244;SDS011;2136;48.502;9.194;2023-03-05T03:16:09;48.17;;;20.67;;
4244;SDS011;2136;48.502;9.194;2023-03-05T03:18:37;48.07;;;20.23;;
4244;SDS011;2136;48.502;9.194;2023-03-05T03:21:04;43.20;;;19.87;;
4244;SDS011;2136;48.502;9.194;2023-03-05T03:23:32;42.17;;;21.00;;
4244;SDS011;2136;48.502;9.194;2023-03-05T03:25:59;46.03;;;19.90;;
4244;SDS011;2136;48.502;9.194;2023-03-05T03:28:27;49.63;;;20.57;;
4244;SDS011;2136;48.502;9.194;2023-03-05T03:30:54;47.57;;;22.00;;
4244;SDS011;2136;48.502;9.194;2023-03-05T03:33:21;50.60;;;20.63;;
4244;SDS011;2136;48.502;9.194;2023-03-05T03:35:48;47.57;;;22.40;;
4244;SDS011;2136;48.502;9.194;2023-03-05T03:38:14;45.90;;;21.03;;
4244;SDS011;2136;48.502;9.194;2023-03-05T03:40:41;43.67;;;19.33;;
4244;SDS011;2136;48.502;9.194;2023-03-05T03:43:08;42.57;;;19.90;;
4244;SDS011;2136;48.502;9.194;2023-03-05T03:45:40;52.60;;;22.43;;
4244;SDS011;2136;48.502;9.194;2023-03-05T03:48:07;45.53;;;18.03;;
4244;SDS011;2136;48.502;9.194;2023-03-05T03:50:36;44.13;;;19.10;;
4244;SDS011;2136;48.502;9.194;2023-03-05T03:53:03;42.57;;;20.20;;
4244;SDS011;2136;48.502;9.194;2023-03-05T03:55:30;45.27;;;20.97;;
4244;SDS011;2136;48.502;9.194;2023-03-05T03:57:57;49.13;;;21.17;;
4244;SDS011;2136;48.502;9.194;2023-03-05T04:00:24;56.43;;;22.73;;
4244;SDS011;2136;48.502;9.194;2023-03-05T04:02:52;51.17;;;22.10;;
4244;SDS011;2136;48.502;9.194;2023-03-05T04:05:19;55.47;;;19.33;;
4244;SDS011;2136;48.502;9.194;2023-03-05T04:07:46;52.03;;;23.33;;
4244;SDS011;2136;48.502;9.194;2023-03-05T04:10:13;44.30;;;20.47;;
4244;SDS011;2136;48.502;9.194;2023-03-05T04:12:40;53.00;;;21.43;;
4244;SDS011;2136;48.502;9.194;2023-03-05T04:15:07;45.50;;;19.30;;
4244;SDS011;2136;48.502;9.194;2023-03-05T04:17:35;41.30;;;19.90;;
4244;SDS011;2136;48.502;9.194;2023-03-05T04:20:04;47.70;;;19.90;;
4244;SDS011;2136;48.502;9.194;2023-03-05T04:22:33;41.90;;;19.53;;
4244;SDS011;2136;48.502;9.194;2023-03-05T04:25:00;48.37;;;18.00;;
4244;SDS011;2136;48.502;9.194;2023-03-05T04:27:30;51.90;;;21.67;;
4244;SDS011;2136;48.502;9.194;2023-03-05T04:29:57;50.07;;;20.20;;
4244;SDS011;2136;48.502;9.194;2023-03-05T04:32:24;52.73;;;20.13;;
4244;SDS011;2136;48.502;9.194;2023-03-05T04:34:52;44.03;;;19.37;;
4244;SDS011;2136;48.502;9.194;2023-03-05T04:37:20;41.73;;;20.07;;
4244;SDS011;2136;48.502;9.194;2023-03-05T04:39:47;48.83;;;19.17;;
4244;SDS011;2136;48.502;9.194;2023-03-05T04:42:14;40.77;;;20.53;;
4244;SDS011;2136;48.502;9.194;2023-03-05T04:44:42;47.63;;;21.60;;
4244;SDS011;2136;48.502;9.194;2023-03-05T04:47:09;55.27;;;20.40;;
4244;SDS011;2136;48.502;9.194;2023-03-05T04:49:35;44.28;;;22.17;;
4244;SDS011;2136;48.502;9.194;2023-03-05T04:52:02;44.43;;;20.67;;
4244;SDS011;2136;48.502;9.194;2023-03-05T04:54:30;48.90;;;20.20;;
4244;SDS011;2136;48.502;9.194;2023-03-05T04:56:57;45.83;;;19.20;;
4244;SDS011;2136;48.502;9.194;2023-03-05T04:59:24;40.87;;;20.00;;
4244;SDS011;2136;48.502;9.194;2023-03-05T05:01:51;40.57;;;20.17;;
4244;SDS011;2136;48.502;9.194;2023-03-05T05:04:18;55.70;;;22.67;;
4244;SDS011;2136;48.502;9.194;2023-03-05T05:06:45;46.97;;;21.10;;
4244;SDS011;2136;48.502;9.194;2023-03-05T05:09:12;51.93;;;23.77;;
4244;SDS011;2136;48.502;9.194;2023-03-05T05:11:40;45.73;;;20.07;;
4244;SDS011;2136;48.502;9.194;2023-03-05T05:14:06;50.43;;;21.00;;
4244;SDS011;2136;48.502;9.194;2023-03-05T05:16:33;41.60;;;21.00;;
4244;SDS011;2136;48.502;9.194;2023-03-05T05:19:00;56.90;;;23.10;;
4244;SDS011;2136;48.502;9.194;2023-03-05T05:21:27;48.43;;;21.30;;
4244;SDS011;2136;48.502;9.194;2023-03-05T05:23:54;44.53;;;20.43;;
4244;SDS011;2136;48.502;9.194;2023-03-05T05:26:21;52.27;;;22.27;;
4244;SDS011;2136;48.502;9.194;2023-03-05T05:28:49;47.90;;;21.60;;
4244;SDS011;2136;48.502;9.194;2023-03-05T05:31:16;47.77;;;21.00;;
4244;SDS011;2136;48.502;9.194;2023-03-05T05:33:43;40.30;;;20.27;;
4244;SDS011;2136;48.502;9.194;2023-03-05T05:36:11;50.17;;;20.07;;
4244;SDS011;2136;48.502;9.194;2023-03-05T05:38:39;48.30;;;20.23;;
4244;SDS011;2136;48.502;9.194;2023-03-05T05:41:07;59.37;;;20.53;;
4244;SDS011;2136;48.502;9.194;2023-03-05T05:43:35;40.07;;;19.17;;
4244;SDS011;2136;48.502;9.194;2023-03-05T05:46:04;53.73;;;22.83;;
4244;SDS011;2136;48.502;9.194;2023-03-05T05:48:33;49.67;;;21.33;;
4244;SDS011;2136;48.502;9.194;2023-03-05T05:51:03;47.73;;;20.07;;
4244;SDS011;2136;48.502;9.194;2023-03-05T05:53:31;45.17;;;20.37;;
4244;SDS011;2136;48.502;9.194;2023-03-05T05:55:58;44.40;;;21.80;;
4244;SDS011;2136;48.502;9.194;2023-03-05T05:58:24;55.07;;;21.07;;
4244;SDS011;2136;48.502;9.194;2023-03-05T06:00:51;51.50;;;20.47;;
4244;SDS011;2136;48.502;9.194;2023-03-05T06:03:19;40.37;;;19.60;;
4244;SDS011;2136;48.502;9.194;2023-03-05T06:05:46;50.03;;;23.10;;
4244;SDS011;2136;48.502;9.194;2023-03-05T06:08:13;40.37;;;20.10;;
4244;SDS011;2136;48.502;9.194;2023-03-05T06:10:40;50.83;;;20.37;;
4244;SDS011;2136;48.502;9.194;2023-03-05T06:13:07;40.20;;;20.90;;
4244;SDS011;2136;48.502;9.194;2023-03-05T06:15:33;50.97;;;20.33;;
4244;SDS011;2136;48.502;9.194;2023-03-05T06:18:00;43.07;;;19.60;;
4244;SDS011;2136;48.502;9.194;2023-03-05T06:20:29;46.90;;;20.37;;
4244;SDS011;2136;48.502;9.194;2023-03-05T06:22:55;46.63;;;21.43;;
4244;SDS011;2136;48.502;9.194;2023-03-05T06:25:22;44.03;;;19.63;;
4244;SDS011;2136;48.502;9.194;2023-03-05T06:27:49;46.33;;;20.43;;
4244;SDS011;2136;48.502;9.194;2023-03-05T06:30:16;39.90;;;20.90;;
4244;SDS011;2136;48.502;9.194;2023-03-05T06:32:43;42.83;;;19.77;;
4244;SDS011;2136;48.502;9.194;2023-03-05T06:35:10;43.00;;;18.77;;
4244;SDS011;2136;48.502;9.194;2023-03-05T06:37:39;44.93;;;19.17;;
4244;SDS011;2136;48.502;9.194;2023-03-05T06:40:06;45.03;;;22.40;;
4244;SDS011;2136;48.502;9.194;2023-03-05T06:42:35;45.27;;;18.07;;
4244;SDS011;2136;48.502;9.194;2023-03-05T06:45:02;53.90;;;21.13;;
4244;SDS011;2136;48.502;9.194;2023-03-05T06:47:29;41.80;;;18.00;;
4244;SDS011;2136;48.502;9.194;2023-03-05T06:49:56;38.10;;;18.53;;
4244;SDS011;2136;48.502;9.194;2023-03-05T06:52:23;38.90;;;18.07;;
4244;SDS011;2136;48.502;9.194;2023-03-05T06:54:51;38.63;;;19.63;;
4244;SDS011;2136;48.502;9.194;2023-03-05T06:57:19;42.97;;;18.43;;
4244;SDS011;2136;48.502;9.194;2023-03-05T06:59:46;41.23;;;19.10;;
4244;SDS011;2136;48.502;9.194;2023-03-05T07:02:13;45.17;;;19.13;;
4244;SDS011;2136;48.502;9.194;2023-03-05T07:04:40;43.97;;;21.00;;
4244;SDS011;2136;48.502;9.194;2023-03-05T07:07:07;40.60;;;19.37;;
4244;SDS011;2136;48.502;9.194;2023-03-05T07:09:33;38.30;;;19.27;;
4244;SDS011;2136;48.502;9.194;2023-03-05T07:12:08;37.97;;;17.60;;
4244;SDS011;2136;48.502;9.194;2023-03-05T07:14:35;40.70;;;18.50;;
4244;SDS011;2136;48.502;9.194;2023-03-05T07:17:02;40.23;;;19.10;;
4244;SDS011;2136;48.502;9.194;2023-03-05T07:19:30;33.00;;;15.93;;
4244;SDS011;2136;48.502;9.194;2023-03-05T07:21:57;40.60;;;19.40;;
4244;SDS011;2136;48.502;9.194;2023-03-05T07:24:24;45.00;;;20.70;;
4244;SDS011;2136;48.502;9.194;2023-03-05T07:26:54;39.70;;;17.73;;
4244;SDS011;2136;48.502;9.194;2023-03-05T07:29:22;48.13;;;21.43;;
4244;SDS011;2136;48.502;9.194;2023-03-05T07:31:49;39.70;;;17.73;;
4244;SDS011;2136;48.502;9.194;2023-03-05T07:34:16;32.77;;;15.70;;
4244;SDS011;2136;48.502;9.194;2023-03-05T07:36:42;36.10;;;17.33;;
4244;SDS011;2136;48.502;9.194;2023-03-05T07:39:11;36.53;;;18.10;;
4244;SDS011;2136;48.502;9.194;2023-03-05T07:41:38;34.40;;;16.13;;
4244;SDS011;2136;48.502;9.194;2023-03-05T07:44:05;36.87;;;16.13;;
4244;SDS011;2136;48.502;9.194;2023-03-05T07:46:33;37.37;;;15.50;;
4244;SDS011;2136;48.502;9.194;2023-03-05T07:49:00;32.20;;;15.50;;
4244;SDS011;2136;48.502;9.194;2023-03-05T07:51:27;36.23;;;15.40;;
4244;SDS011;2136;48.502;9.194;2023-03-05T07:53:54;34.77;;;16.67;;
4244;SDS011;2136;48.502;9.194;2023-03-05T07:56:22;35.40;;;15.13;;
4244;SDS011;2136;48.502;9.194;2023-03-05T07:58:49;27.47;;;14.53;;
4244;SDS011;2136;48.502;9.194;2023-03-05T08:01:16;37.63;;;17.40;;
4244;SDS011;2136;48.502;9.194;2023-03-05T08:03:45;29.53;;;14.77;;
4244;SDS011;2136;48.502;9.194;2023-03-05T08:06:12;37.83;;;20.70;;
4244;SDS011;2136;48.502;9.194;2023-03-05T08:08:38;46.60;;;15.30;;
4244;SDS011;2136;48.502;9.194;2023-03-05T08:11:06;25.17;;;13.67;;
4244;SDS011;2136;48.502;9.194;2023-03-05T08:13:34;33.07;;;13.93;;
4244;SDS011;2136;48.502;9.194;2023-03-05T08:16:03;30.70;;;16.40;;
4244;SDS011;2136;48.502;9.194;2023-03-05T08:18:31;26.50;;;13.83;;
4244;SDS011;2136;48.502;9.194;2023-03-05T08:20:59;31.17;;;13.40;;
4244;SDS011;2136;48.502;9.194;2023-03-05T08:23:26;30.83;;;14.43;;
4244;SDS011;2136;48.502;9.194;2023-03-05T08:25:53;41.60;;;14.90;;
4244;SDS011;2136;48.502;9.194;2023-03-05T08:28:20;29.50;;;14.70;;
4244;SDS011;2136;48.502;9.194;2023-03-05T08:30:47;31.90;;;13.67;;
4244;SDS011;2136;48.502;9.194;2023-03-05T08:33:14;24.60;;;13.73;;
4244;SDS011;2136;48.502;9.194;2023-03-05T08:35:42;32.97;;;14.00;;
4244;SDS011;2136;48.502;9.194;2023-03-05T08:38:10;26.30;;;14.10;;
4244;SDS011;2136;48.502;9.194;2023-03-05T08:40:37;28.20;;;14.73;;
4244;SDS011;2136;48.502;9.194;2023-03-05T08:43:04;27.73;;;13.80;;
4244;SDS011;2136;48.502;9.194;2023-03-05T08:45:31;30.50;;;14.63;;
4244;SDS011;2136;48.502;9.194;2023-03-05T08:47:58;31.00;;;12.40;;
4244;SDS011;2136;48.502;9.194;2023-03-05T08:50:24;26.17;;;15.30;;
4244;SDS011;2136;48.502;9.194;2023-03-05T08:52:51;31.23;;;13.60;;
4244;SDS011;2136;48.502;9.194;2023-03-05T08:55:21;20.67;;;12.53;;
4244;SDS011;2136;48.502;9.194;2023-03-05T08:57:48;28.23;;;14.37;;
4244;SDS011;2136;48.502;9.194;2023-03-05T09:00:15;31.73;;;15.07;;
4244;SDS011;2136;48.502;9.194;2023-03-05T09:02:42;26.07;;;13.93;;
4244;SDS011;2136;48.502;9.194;2023-03-05T09:05:09;29.43;;;15.37;;
4244;SDS011;2136;48.502;9.194;2023-03-05T09:07:36;33.07;;;15.23;;
4244;SDS011;2136;48.502;9.194;2023-03-05T09:10:03;26.60;;;15.10;;
4244;SDS011;2136;48.502;9.194;2023-03-05T09:12:32;34.07;;;16.50;;
4244;SDS011;2136;48.502;9.194;2023-03-05T09:14:59;24.60;;;13.80;;
4244;SDS011;2136;48.502;9.194;2023-03-05T09:17:26;25.37;;;12.60;;
4244;SDS011;2136;48.502;9.194;2023-03-05T09:19:52;31.38;;;14.65;;
4244;SDS011;2136;48.502;9.194;2023-03-05T09:22:19;27.60;;;13.47;;
4244;SDS011;2136;48.502;9.194;2023-03-05T09:24:46;24.17;;;13.77;;
4244;SDS011;2136;48.502;9.194;2023-03-05T09:27:13;24.47;;;13.57;;
4244;SDS011;2136;48.502;9.194;2023-03-05T09:29:41;31.43;;;15.43;;
4244;SDS011;2136;48.502;9.194;2023-03-05T09:32:08;27.47;;;13.60;;
4244;SDS011;2136;48.502;9.194;2023-03-05T09:34:34;26.87;;;14.60;;
4244;SDS011;2136;48.502;9.194;2023-03-05T09:37:01;24.43;;;13.50;;
4244;SDS011;2136;48.502;9.194;2023-03-05T09:39:28;32.03;;;14.70;;
4244;SDS011;2136;48.502;9.194;2023-03-05T09:44:59;23.27;;;12.83;;
4244;SDS011;2136;48.502;9.194;2023-03-05T09:47:43;28.57;;;13.60;;
4244;SDS011;2136;48.502;9.194;2023-03-05T09:50:18;24.90;;;12.27;;
4244;SDS011;2136;48.502;9.194;2023-03-05T09:52:56;24.37;;;11.37;;
4244;SDS011;2136;48.502;9.194;2023-03-05T09:55:28;21.30;;;12.57;;
4244;SDS011;2136;48.502;9.194;2023-03-05T09:58:02;22.60;;;10.83;;
4244;SDS011;2136;48.502;9.194;2023-03-05T10:00:34;19.67;;;11.57;;
4244;SDS011;2136;48.502;9.194;2023-03-05T10:03:04;30.10;;;15.10;;
4244;SDS011;2136;48.502;9.194;2023-03-05T10:08:31;20.17;;;10.97;;
4244;SDS011;2136;48.502;9.194;2023-03-05T10:11:07;19.30;;;10.60;;
4244;SDS011;2136;48.502;9.194;2023-03-05T10:13:44;33.53;;;14.53;;
4244;SDS011;2136;48.502;9.194;2023-03-05T10:16:21;25.80;;;12.30;;
4244;SDS011;2136;48.502;9.194;2023-03-05T10:19:07;24.47;;;14.17;;
4244;SDS011;2136;48.502;9.194;2023-03-05T10:21:39;59.63;;;28.63;;
4244;SDS011;2136;48.502;9.194;2023-03-05T10:24:13;36.87;;;17.50;;
4244;SDS011;2136;48.502;9.194;2023-03-05T10:26:48;22.50;;;12.33;;
4244;SDS011;2136;48.502;9.194;2023-03-05T10:29:25;24.83;;;13.73;;
4244;SDS011;2136;48.502;9.194;2023-03-05T10:32:09;23.67;;;13.20;;
4244;SDS011;2136;48.502;9.194;2023-03-05T10:34:58;21.67;;;13.00;;
4244;SDS011;2136;48.502;9.194;2023-03-05T10:37:47;23.58;;;12.55;;
4244;SDS011;2136;48.502;9.194;2023-03-05T10:40:25;20.33;;;11.37;;
4244;SDS011;2136;48.502;9.194;2023-03-05T10:43:00;25.30;;;12.97;;
4244;SDS011;2136;48.502;9.194;2023-03-05T10:45:38;23.80;;;13.10;;
4244;SDS011;2136;48.502;9.194;2023-03-05T10:48:10;22.40;;;15.40;;
4244;SDS011;2136;48.502;9.194;2023-03-05T10:50:42;25.77;;;12.50;;
4244;SDS011;2136;48.502;9.194;2023-03-05T10:53:14;26.40;;;13.27;;
4244;SDS011;2136;48.502;9.194;2023-03-05T10:55:48;23.90;;;12.20;;
4244;SDS011;2136;48.502;9.194;2023-03-05T10:58:20;26.17;;;13.33;;
4244;SDS011;2136;48.502;9.194;2023-03-05T11:00:58;19.90;;;11.27;;
4244;SDS011;2136;48.502;9.194;2023-03-05T11:03:41;23.37;;;12.00;;
4244;SDS011;2136;48.502;9.194;2023-03-05T11:06:25;32.13;;;13.40;;
4244;SDS011;2136;48.502;9.194;2023-03-05T11:12:05;18.57;;;12.00;;
4244;SDS011;2136;48.502;9.194;2023-03-05T11:14:38;19.40;;;11.53;;
4244;SDS011;2136;48.502;9.194;2023-03-05T11:17:27;24.83;;;12.80;;
4244;SDS011;2136;48.502;9.194;2023-03-05T11:19:57;23.53;;;11.80;;
4244;SDS011;2136;48.502;9.194;2023-03-05T11:23:02;20.20;;;11.43;;
4244;SDS011;2136;48.502;9.194;2023-03-05T11:25:51;21.67;;;13.17;;
4244;SDS011;2136;48.502;9.194;2023-03-05T11:28:20;25.10;;;12.37;;
4244;SDS011;2136;48.502;9.194;2023-03-05T11:30:59;21.17;;;11.27;;
4244;SDS011;2136;48.502;9.194;2023-03-05T11:33:32;24.70;;;14.13;;
4244;SDS011;2136;48.502;9.194;2023-03-05T11:36:12;25.20;;;12.17;;
4244;SDS011;2136;48.502;9.194;2023-03-05T11:38:50;23.17;;;13.20;;
4244;SDS011;2136;48.502;9.194;2023-03-05T11:41:24;26.87;;;13.30;;
4244;SDS011;2136;48.502;9.194;2023-03-05T11:43:55;82.07;;;32.20;;
4244;SDS011;2136;48.502;9.194;2023-03-05T11:46:24;31.80;;;15.55;;
4244;SDS011;2136;48.502;9.194;2023-03-05T11:48:52;21.30;;;11.33;;
4244;SDS011;2136;48.502;9.194;2023-03-05T11:51:24;24.37;;;12.33;;
4244;SDS011;2136;48.502;9.194;2023-03-05T11:53:54;21.73;;;10.87;;
4244;SDS011;2136;48.502;9.194;2023-03-05T11:56:26;26.53;;;12.37;;
4244;SDS011;2136;48.502;9.194;2023-03-05T11:58:56;22.40;;;12.70;;
4244;SDS011;2136;48.502;9.194;2023-03-05T12:01:27;19.03;;;12.37;;
4244;SDS011;2136;48.502;9.194;2023-03-05T12:03:56;18.83;;;11.33;;
4244;SDS011;2136;48.502;9.194;2023-03-05T12:06:27;19.37;;;11.50;;
4244;SDS011;2136;48.502;9.194;2023-03-05T12:08:58;20.23;;;11.20;;
4244;SDS011;2136;48.502;9.194;2023-03-05T12:11:29;26.13;;;11.50;;
4244;SDS011;2136;48.502;9.194;2023-03-05T12:13:58;21.97;;;11.33;;
4244;SDS011;2136;48.502;9.194;2023-03-05T12:16:31;21.87;;;11.40;;
4244;SDS011;2136;48.502;9.194;2023-03-05T12:19:17;28.20;;;13.10;;
4244;SDS011;2136;48.502;9.194;2023-03-05T12:22:01;17.90;;;10.80;;
4244;SDS011;2136;48.502;9.194;2023-03-05T12:24:35;24.30;;;11.10;;
4244;SDS011;2136;48.502;9.194;2023-03-05T12:27:10;20.60;;;11.50;;
4244;SDS011;2136;48.502;9.194;2023-03-05T12:29:41;19.60;;;10.20;;
4244;SDS011;2136;48.502;9.194;2023-03-05T12:35:23;16.40;;;10.40;;
4244;SDS011;2136;48.502;9.194;2023-03-05T12:38:00;18.67;;;11.20;;
4244;SDS011;2136;48.502;9.194;2023-03-05T12:40:29;18.83;;;10.50;;
4244;SDS011;2136;48.502;9.194;2023-03-05T12:42:57;22.33;;;11.47;;
4244;SDS011;2136;48.502;9.194;2023-03-05T12:54:20;21.73;;;11.70;;
4244;SDS011;2136;48.502;9.194;2023-03-05T12:56:49;22.47;;;11.60;;
4244;SDS011;2136;48.502;9.194;2023-03-05T12:59:18;25.40;;;13.27;;
4244;SDS011;2136;48.502;9.194;2023-03-05T13:01:49;17.40;;;10.70;;
4244;SDS011;2136;48.502;9.194;2023-03-05T13:04:21;18.57;;;11.27;;
4244;SDS011;2136;48.502;9.194;2023-03-05T13:06:57;22.20;;;12.17;;
4244;SDS011;2136;48.502;9.194;2023-03-05T13:09:27;27.20;;;11.60;;
4244;SDS011;2136;48.502;9.194;2023-03-05T13:11:58;17.47;;;10.00;;
4244;SDS011;2136;48.502;9.194;2023-03-05T13:14:34;19.57;;;11.60;;
4244;SDS011;2136;48.502;9.194;2023-03-05T13:17:19;19.15;;;12.15;;
4244;SDS011;2136;48.502;9.194;2023-03-05T13:19:55;21.83;;;11.23;;
4244;SDS011;2136;48.502;9.194;2023-03-05T13:22:22;25.33;;;13.27;;
4244;SDS011;2136;48.502;9.194;2023-03-05T13:25:02;27.57;;;12.70;;
4244;SDS011;2136;48.502;9.194;2023-03-05T13:27:31;20.20;;;11.73;;
4244;SDS011;2136;48.502;9.194;2023-03-05T13:29:58;23.23;;;12.73;;
4244;SDS011;2136;48.502;9.194;2023-03-05T13:32:25;22.67;;;12.13;;
4244;SDS011;2136;48.502;9.194;2023-03-05T13:34:56;21.57;;;12.03;;
4244;SDS011;2136;48.502;9.194;2023-03-05T13:37:25;21.20;;;11.87;;
4244;SDS011;2136;48.502;9.194;2023-03-05T13:39:56;25.47;;;12.87;;
4244;SDS011;2136;48.502;9.194;2023-03-05T13:42:26;25.83;;;14.30;;
4244;SDS011;2136;48.502;9.194;2023-03-05T13:44:57;27.60;;;13.17;;
4244;SDS011;2136;48.502;9.194;2023-03-05T13:47:28;25.13;;;13.53;;
4244;SDS011;2136;48.502;9.194;2023-03-05T13:49:58;25.97;;;14.50;;
4244;SDS011;2136;48.502;9.194;2023-03-05T13:52:26;26.20;;;14.00;;
4244;SDS011;2136;48.502;9.194;2023-03-05T13:54:55;24.23;;;13.17;;
4244;SDS011;2136;48.502;9.194;2023-03-05T13:57:33;32.90;;;15.43;;
4244;SDS011;2136;48.502;9.194;2023-03-05T14:00:02;26.30;;;13.17;;
4244;SDS011;2136;48.502;9.194;2023-03-05T14:02:31;30.83;;;14.87;;
4244;SDS011;2136;48.502;9.194;2023-03-05T14:04:58;24.40;;;13.60;;
4244;SDS011;2136;48.502;9.194;2023-03-05T14:07:30;32.67;;;14.23;;
4244;SDS011;2136;48.502;9.194;2023-03-05T14:09:59;32.20;;;15.40;;
4244;SDS011;2136;48.502;9.194;2023-03-05T14:12:29;33.20;;;15.40;;
4244;SDS011;2136;48.502;9.194;2023-03-05T14:15:00;24.23;;;13.03;;
4244;SDS011;2136;48.502;9.194;2023-03-05T14:17:37;27.43;;;14.00;;
4244;SDS011;2136;48.502;9.194;2023-03-05T14:20:06;27.00;;;13.80;;
4244;SDS011;2136;48.502;9.194;2023-03-05T14:22:43;24.83;;;13.70;;
4244;SDS011;2136;48.502;9.194;2023-03-05T14:25:24;27.17;;;15.03;;
4244;SDS011;2136;48.502;9.194;2023-03-05T14:27:53;33.17;;;13.93;;
4244;SDS011;2136;48.502;9.194;2023-03-05T14:30:21;23.47;;;13.67;;
4244;SDS011;2136;48.502;9.194;2023-03-05T14:32:50;35.37;;;14.33;;
4244;SDS011;2136;48.502;9.194;2023-03-05T14:35:20;28.50;;;15.90;;
4244;SDS011;2136;48.502;9.194;2023-03-05T14:37:50;23.27;;;13.27;;
4244;SDS011;2136;48.502;9.194;2023-03-05T14:40:19;27.40;;;13.70;;
4244;SDS011;2136;48.502;9.194;2023-03-05T14:42:51;33.20;;;15.70;;
4244;SDS011;2136;48.502;9.194;2023-03-05T14:45:19;34.30;;;18.20;;
4244;SDS011;2136;48.502;9.194;2023-03-05T14:47:49;28.13;;;14.33;;
4244;SDS011;2136;48.502;9.194;2023-03-05T14:50:20;25.03;;;14.43;;
4244;SDS011;2136;48.502;9.194;2023-03-05T14:52:50;26.13;;;13.97;;
4244;SDS011;2136;48.502;9.194;2023-03-05T14:55:20;35.70;;;15.17;;
4244;SDS011;2136;48.502;9.194;2023-03-05T14:57:48;26.30;;;13.47;;
4244;SDS011;2136;48.502;9.194;2023-03-05T15:00:16;23.70;;;12.87;;
4244;SDS011;2136;48.502;9.194;2023-03-05T15:02:45;29.20;;;14.70;;
4244;SDS011;2136;48.502;9.194;2023-03-05T15:05:14;26.63;;;13.37;;
4244;SDS011;2136;48.502;9.194;2023-03-05T15:07:41;23.30;;;12.90;;
4244;SDS011;2136;48.502;9.194;2023-03-05T15:10:09;26.10;;;13.17;;
4244;SDS011;2136;48.502;9.194;2023-03-05T15:12:39;21.73;;;11.70;;
4244;SDS011;2136;48.502;9.194;2023-03-05T15:15:07;26.87;;;12.73;;
4244;SDS011;2136;48.502;9.194;2023-03-05T15:17:36;28.30;;;13.57;;
4244;SDS011;2136;48.502;9.194;2023-03-05T15:20:09;27.70;;;14.17;;
4244;SDS011;2136;48.502;9.194;2023-03-05T15:22:41;23.70;;;13.83;;